Time;durP1;ratioP1;P1;durP2;ratioP2;P2;SDS_P1;SDS_P2;PMS_P1;PMS_P2;Temp;Humidity;BMP_temperature;BMP_pressure;BME280_temperature;BME280_humidity;BME280_pressure;Samples;Min_cycle;Max_cycle;Signal;HPM_P1;HPM_P2
2022/09/21 00:00:38;;;;;;;8.27;4.82;;;6.60;94.20;;;;;;5049901;28;20060;-70
2022/09/21 00:03:08;;;;;;;9.77;4.90;;;6.50;93.00;;;;;;5054832;28;20035;-70
2022/09/21 00:05:34;;;;;;;14.40;5.18;;;6.50;92.60;;;;;;5047579;28;20104;-69
2022/09/21 00:08:10;;;;;;;12.60;5.22;;;6.40;92.30;;;;;;5049742;28;20033;-69
2022/09/21 00:10:36;;;;;;;9.75;5.10;;;6.30;92.10;;;;;;5038314;28;20037;-69
2022/09/21 00:13:02;;;;;;;12.23;5.45;;;6.30;91.60;;;;;;5053380;28;20039;-69
2022/09/21 00:15:34;;;;;;;12.75;5.07;;;6.20;91.20;;;;;;5046070;28;20060;-69
2022/09/21 00:18:02;;;;;;;15.05;5.32;;;6.10;91.20;;;;;;5050848;28;20021;-69
2022/09/21 00:20:28;;;;;;;11.75;5.18;;;6.00;90.90;;;;;;5029165;28;20425;-70
2022/09/21 00:22:54;;;;;;;10.52;5.63;;;5.80;90.70;;;;;;5054102;28;20163;-69
2022/09/21 00:25:22;;;;;;;13.68;5.75;;;5.80;90.00;;;;;;5049888;28;20017;-69
2022/09/21 00:27:50;;;;;;;9.13;5.88;;;5.60;90.10;;;;;;5045004;28;20052;-70
2022/09/21 00:30:16;;;;;;;14.25;6.22;;;5.60;89.40;;;;;;5054099;28;20448;-69
2022/09/21 00:32:45;;;;;;;11.63;6.18;;;5.40;89.40;;;;;;5050801;28;20444;-69
2022/09/21 00:35:10;;;;;;;12.32;6.35;;;5.30;89.10;;;;;;5044037;28;20445;-69
2022/09/21 00:37:36;;;;;;;9.50;5.82;;;5.30;88.10;;;;;;5041310;28;20071;-69
2022/09/21 00:40:03;;;;;;;15.15;6.70;;;5.20;88.00;;;;;;5051084;28;20017;-69
2022/09/21 00:42:33;;;;;;;12.02;6.55;;;5.00;88.20;;;;;;5046459;28;20025;-69
2022/09/21 00:45:00;;;;;;;12.32;7.03;;;4.90;87.80;;;;;;5045878;28;20029;-69
2022/09/21 00:47:44;;;;;;;10.18;6.53;;;4.80;87.40;;;;;;5044383;28;20108;-69
2022/09/21 00:50:16;;;;;;;14.38;6.30;;;4.70;86.80;;;;;;5048900;28;20037;-69
2022/09/21 00:52:46;;;;;;;15.32;6.32;;;4.60;86.50;;;;;;5042994;28;20025;-69
2022/09/21 00:55:22;;;;;;;15.27;7.63;;;4.50;86.60;;;;;;5048379;28;20107;-69
2022/09/21 00:57:53;;;;;;;15.35;7.80;;;4.40;85.60;;;;;;5052984;28;20112;-69
2022/09/21 01:00:19;;;;;;;11.68;6.72;;;4.40;84.90;;;;;;5052091;28;20039;-69
2022/09/21 01:02:45;;;;;;;16.35;7.55;;;4.50;83.50;;;;;;5041036;28;20399;-69
2022/09/21 01:05:11;;;;;;;14.55;7.80;;;4.60;83.60;;;;;;5049478;28;20033;-69
2022/09/21 01:08:06;;;;;;;13.98;7.32;;;4.60;83.80;;;;;;5046905;28;20330;-69
2022/09/21 01:11:08;;;;;;;19.58;7.75;;;4.60;83.60;;;;;;5048424;28;20091;-69
2022/09/21 01:14:13;;;;;;;11.50;6.57;;;4.60;83.50;;;;;;5032853;28;20041;-69
2022/09/21 01:16:55;;;;;;;14.57;7.07;;;4.60;82.80;;;;;;5042276;28;20029;-69
2022/09/21 01:19:52;;;;;;;12.88;6.70;;;4.70;82.40;;;;;;5052026;28;20296;-69
2022/09/21 01:22:55;;;;;;;16.00;6.68;;;4.80;82.60;;;;;;5052510;28;20074;-69
2022/09/21 01:25:37;;;;;;;13.48;7.50;;;4.70;83.50;;;;;;5052317;28;20469;-69
2022/09/21 01:28:11;;;;;;;14.00;6.85;;;4.60;82.90;;;;;;5037149;28;20036;-69
2022/09/21 01:30:38;;;;;;;11.20;6.80;;;4.70;82.30;;;;;;5049550;28;20362;-69
2022/09/21 01:33:12;;;;;;;12.35;6.65;;;4.70;82.90;;;;;;5042200;28;20091;-69
2022/09/21 01:35:49;;;;;;;15.35;7.55;;;4.70;82.70;;;;;;5051211;28;20051;-69
2022/09/21 01:38:29;;;;;;;12.38;6.93;;;4.70;83.10;;;;;;5031331;28;20041;-69
2022/09/21 01:41:00;;;;;;;13.80;7.75;;;4.50;85.10;;;;;;5045037;28;20384;-69
2022/09/21 01:43:37;;;;;;;12.80;6.25;;;4.30;85.10;;;;;;5039717;28;20021;-69
2022/09/21 01:46:08;;;;;;;14.10;7.45;;;4.20;84.70;;;;;;5049592;28;20021;-69
2022/09/21 01:48:39;;;;;;;13.80;7.45;;;4.00;85.60;;;;;;5052484;28;20029;-69
2022/09/21 01:51:10;;;;;;;13.82;6.70;;;3.90;84.10;;;;;;5054525;28;20017;-69
2022/09/21 01:53:45;;;;;;;11.70;6.00;;;3.90;83.40;;;;;;5054405;28;20029;-69
2022/09/21 01:56:19;;;;;;;16.42;8.50;;;3.90;83.20;;;;;;5047738;28;20104;-69
2022/09/21 01:58:46;;;;;;;12.75;7.20;;;3.90;82.60;;;;;;5050315;28;20028;-70
2022/09/21 02:01:17;;;;;;;12.55;7.10;;;3.80;83.00;;;;;;5055135;28;20041;-69
2022/09/21 02:03:56;;;;;;;13.52;6.90;;;3.80;83.10;;;;;;5055659;28;20417;-69
2022/09/21 02:06:26;;;;;;;16.58;7.68;;;3.70;82.20;;;;;;5047626;28;20104;-69
2022/09/21 02:08:52;;;;;;;14.27;7.63;;;3.80;80.90;;;;;;5055672;28;20020;-69
2022/09/21 02:11:18;;;;;;;16.10;7.55;;;3.90;80.80;;;;;;5054426;28;20025;-69
2022/09/21 02:13:50;;;;;;;15.25;8.57;;;4.00;79.90;;;;;;5053943;28;20064;-69
2022/09/21 02:16:39;;;;;;;17.55;8.27;;;4.10;79.90;;;;;;5055630;28;20041;-69
2022/09/21 02:19:21;;;;;;;19.17;7.88;;;4.20;79.90;;;;;;5054468;28;20412;-69
2022/09/21 02:22:11;;;;;;;16.67;8.23;;;4.20;80.30;;;;;;5045161;28;20433;-69
2022/09/21 02:24:43;;;;;;;16.20;7.80;;;4.20;80.10;;;;;;5048491;28;20025;-69
2022/09/21 02:27:31;;;;;;;14.68;7.18;;;4.20;80.40;;;;;;5034874;28;20029;-69
2022/09/21 02:30:07;;;;;;;14.10;7.70;;;4.20;80.00;;;;;;5055237;28;20033;-68
2022/09/21 02:32:54;;;;;;;13.70;7.00;;;4.10;80.50;;;;;;5055418;28;20326;-69
2022/09/21 02:35:45;;;;;;;12.50;6.70;;;4.00;82.10;;;;;;5030881;28;20064;-69
2022/09/21 02:38:32;;;;;;;13.50;6.00;;;3.90;80.20;;;;;;5037190;28;20033;-68
2022/09/21 02:41:28;;;;;;;14.60;6.95;;;4.00;79.60;;;;;;5027894;28;21709;-68
2022/09/21 02:44:03;;;;;;;16.73;7.43;;;4.00;79.80;;;;;;5028682;28;20021;-68
2022/09/21 02:46:51;;;;;;;11.85;6.50;;;4.10;79.80;;;;;;5033685;28;20029;-68
2022/09/21 02:49:40;;;;;;;11.55;6.25;;;4.10;80.90;;;;;;5033709;28;20021;-70
2022/09/21 02:52:17;;;;;;;14.63;6.80;;;4.00;81.40;;;;;;5035950;28;20410;-71
2022/09/21 02:54:47;;;;;;;11.57;6.75;;;3.80;81.50;;;;;;5023047;28;20411;-70
2022/09/21 02:57:15;;;;;;;13.48;6.45;;;3.90;81.00;;;;;;5033719;28;20030;-70
2022/09/21 02:59:43;;;;;;;15.63;6.95;;;3.90;80.90;;;;;;5035103;28;20026;-69
2022/09/21 03:02:11;;;;;;;14.55;6.78;;;3.90;80.40;;;;;;5032710;28;20395;-69
2022/09/21 03:04:40;;;;;;;9.45;6.50;;;3.90;80.40;;;;;;5032344;28;20026;-69
2022/09/21 03:07:08;;;;;;;13.55;7.07;;;4.00;80.70;;;;;;5033901;28;20034;-70
2022/09/21 03:09:37;;;;;;;16.40;7.85;;;4.10;80.30;;;;;;5026686;28;20025;-69
2022/09/21 03:12:02;;;;;;;15.05;6.97;;;4.10;80.90;;;;;;5035181;28;20083;-69
2022/09/21 03:14:30;;;;;;;12.50;6.63;;;4.10;81.50;;;;;;5033554;28;20373;-69
2022/09/21 03:16:59;;;;;;;14.82;6.97;;;4.10;81.90;;;;;;5031338;28;20064;-69
2022/09/21 03:19:25;;;;;;;13.55;6.53;;;4.00;82.40;;;;;;5033061;28;20327;-70
2022/09/21 03:21:54;;;;;;;14.20;6.40;;;3.90;82.90;;;;;;5033876;28;20406;-70
2022/09/21 03:24:44;;;;;;;18.10;6.97;;;3.90;82.40;;;;;;5029976;28;20040;-69
2022/09/21 03:27:08;;;;;;;11.90;6.18;;;3.90;82.10;;;;;;5024812;28;20033;-69
2022/09/21 03:29:34;;;;;;;12.68;6.15;;;3.80;82.60;;;;;;5032938;28;20026;-69
2022/09/21 03:32:01;;;;;;;14.60;6.22;;;3.80;82.60;;;;;;5023792;28;20037;-69
2022/09/21 03:34:26;;;;;;;14.45;6.22;;;3.80;82.10;;;;;;5028260;28;20057;-69
2022/09/21 03:36:54;;;;;;;15.57;6.78;;;3.90;82.10;;;;;;5049022;28;20033;-69
2022/09/21 03:39:20;;;;;;;13.85;6.18;;;3.90;81.60;;;;;;5051193;28;20037;-69
2022/09/21 03:41:46;;;;;;;11.85;6.20;;;4.00;81.70;;;;;;5054148;28;20107;-68
2022/09/21 03:44:12;;;;;;;13.35;5.82;;;4.00;82.60;;;;;;5053807;28;20052;-68
2022/09/21 03:46:38;;;;;;;12.93;5.65;;;4.00;82.50;;;;;;5055274;28;20037;-68
2022/09/21 03:49:09;;;;;;;12.80;5.45;;;3.90;82.80;;;;;;5056266;28;20187;-68
2022/09/21 03:51:35;;;;;;;14.25;5.63;;;3.90;83.30;;;;;;5056503;28;20527;-68
2022/09/21 03:54:00;;;;;;;13.95;6.00;;;3.80;83.20;;;;;;5050625;28;20027;-68
2022/09/21 03:56:34;;;;;;;12.68;6.15;;;3.80;83.60;;;;;;5054158;28;20035;-69
2022/09/21 03:59:00;;;;;;;15.20;5.82;;;3.70;84.10;;;;;;5054216;28;20056;-68
2022/09/21 04:01:28;;;;;;;16.58;7.18;;;3.70;83.80;;;;;;5056226;28;20441;-69
2022/09/21 04:03:53;;;;;;;11.90;5.90;;;3.70;83.30;;;;;;5054399;28;20350;-69
2022/09/21 04:06:19;;;;;;;16.27;6.25;;;3.70;83.00;;;;;;5055046;28;20100;-69
2022/09/21 04:08:53;;;;;;;11.90;5.90;;;3.60;83.30;;;;;;5048974;28;20029;-68
2022/09/21 04:11:21;;;;;;;;;;;3.60;82.70;;;;;;5050278;28;20013;-68
2022/09/21 04:14:05;;;;;;;11.95;5.88;;;3.60;82.80;;;;;;5052468;28;20232;-69
2022/09/21 04:16:32;;;;;;;11.82;5.85;;;3.60;82.60;;;;;;5047337;28;20025;-69
2022/09/21 04:19:00;;;;;;;12.50;6.00;;;3.60;82.20;;;;;;5047461;28;20425;-69
2022/09/21 04:21:29;;;;;;;12.82;6.25;;;3.60;82.50;;;;;;5047731;28;20380;-69
2022/09/21 04:23:55;;;;;;;9.85;5.55;;;3.50;82.50;;;;;;5051094;28;20137;-69
2022/09/21 04:26:34;;;;;;;10.32;5.68;;;3.50;82.40;;;;;;5051143;28;20021;-69
2022/09/21 04:29:00;;;;;;;10.57;5.60;;;3.40;82.50;;;;;;5052449;28;20511;-69
2022/09/21 04:31:27;;;;;;;10.38;5.82;;;3.40;81.50;;;;;;5048788;28;20449;-69
2022/09/21 04:33:58;;;;;;;13.80;6.18;;;3.40;81.20;;;;;;5054610;28;20033;-69
2022/09/21 04:36:27;;;;;;;12.90;6.60;;;3.50;80.90;;;;;;5054208;28;20021;-69
2022/09/21 04:38:59;;;;;;;14.45;5.93;;;3.50;80.90;;;;;;5054684;28;20028;-69
2022/09/21 04:41:28;;;;;;;13.20;5.20;;;3.40;81.30;;;;;;5052579;28;20028;-69
2022/09/21 04:43:54;;;;;;;13.13;6.10;;;3.40;81.20;;;;;;5038229;28;20017;-69
2022/09/21 04:46:20;;;;;;;15.70;5.68;;;3.40;80.80;;;;;;5053793;28;20028;-69
2022/09/21 04:48:46;;;;;;;12.50;6.07;;;3.40;80.20;;;;;;5052030;28;20461;-69
2022/09/21 04:51:13;;;;;;;12.48;5.75;;;3.40;80.30;;;;;;5052258;28;20036;-69
2022/09/21 04:53:41;;;;;;;9.40;6.00;;;3.40;80.20;;;;;;5050209;28;20070;-69
2022/09/21 04:56:13;;;;;;;13.93;6.32;;;3.40;80.10;;;;;;5051534;28;20060;-69
2022/09/21 04:58:38;;;;;;;12.52;5.63;;;3.40;80.40;;;;;;5052068;28;20017;-69
2022/09/21 05:01:06;;;;;;;15.05;5.63;;;3.40;79.70;;;;;;5052545;28;20054;-69
2022/09/21 05:03:32;;;;;;;11.25;5.28;;;3.40;80.10;;;;;;5042424;28;20326;-69
2022/09/21 05:05:58;;;;;;;14.65;5.80;;;3.30;79.80;;;;;;5048544;28;20021;-69
2022/09/21 05:11:14;;;;;;;12.63;5.38;;;3.40;79.10;;;;;;5048650;28;20039;-69
2022/09/21 05:13:41;;;;;;;15.25;6.05;;;3.40;79.50;;;;;;5038010;28;20052;-68
2022/09/21 05:16:07;;;;;;;12.40;5.78;;;3.40;79.60;;;;;;5053397;28;20441;-68
2022/09/21 05:18:33;;;;;;;12.07;5.57;;;3.40;79.40;;;;;;5054774;28;20044;-70
2022/09/21 05:21:01;;;;;;;9.45;4.50;;;3.40;79.20;;;;;;5054479;28;20052;-69
2022/09/21 05:23:28;;;;;;;10.45;4.93;;;3.50;79.30;;;;;;5048619;28;20428;-69
2022/09/21 05:25:55;;;;;;;8.18;4.65;;;3.50;79.30;;;;;;5052370;28;20043;-69
2022/09/21 05:28:21;;;;;;;8.50;4.68;;;3.40;79.60;;;;;;5051846;28;20087;-69
2022/09/21 05:31:12;;;;;;;9.23;4.85;;;3.40;79.70;;;;;;5053307;28;20104;-69
2022/09/21 05:33:43;;;;;;;12.27;6.13;;;3.40;79.60;;;;;;4997361;28;20323;-69
2022/09/21 05:36:27;;;;;;;12.98;5.20;;;3.40;79.80;;;;;;5051549;28;20037;-69
2022/09/21 05:38:55;;;;;;;;;;;3.40;79.40;;;;;;5053773;28;20033;-69
2022/09/21 05:41:24;;;;;;;15.13;10.40;;;3.40;79.60;;;;;;5050526;28;19916;-69
2022/09/21 05:43:50;;;;;;;17.83;11.32;;;3.30;79.70;;;;;;5051497;28;20025;-70
2022/09/21 05:46:41;;;;;;;15.70;8.50;;;3.30;79.40;;;;;;5052648;28;20032;-69
2022/09/21 05:49:45;;;;;;;11.00;6.63;;;3.30;79.40;;;;;;5055145;28;20025;-69
2022/09/21 05:52:27;;;;;;;10.82;6.63;;;3.30;79.10;;;;;;4981483;28;20067;-69
2022/09/21 05:55:22;;;;;;;11.40;6.88;;;3.40;78.90;;;;;;5051091;28;20021;-69
2022/09/21 05:57:59;;;;;;;10.98;6.72;;;3.40;79.20;;;;;;5036195;28;20029;-69
2022/09/21 06:00:30;;;;;;;8.23;4.80;;;3.40;78.90;;;;;;5040269;28;20345;-69
2022/09/21 06:03:33;;;;;;;8.35;4.82;;;3.50;78.40;;;;;;5041173;28;20137;-69
2022/09/21 06:06:05;;;;;;;9.52;6.00;;;3.60;78.30;;;;;;5055483;28;20021;-69
2022/09/21 06:08:30;;;;;;;11.45;6.85;;;3.70;78.80;;;;;;5035242;28;20025;-69
2022/09/21 06:11:02;;;;;;;10.07;6.72;;;3.80;78.60;;;;;;5052125;28;20048;-69
2022/09/21 06:13:28;;;;;;;8.10;5.13;;;3.90;78.90;;;;;;5054412;28;20036;-69
2022/09/21 06:15:54;;;;;;;11.88;5.78;;;4.00;78.80;;;;;;5052134;28;20033;-69
2022/09/21 06:18:19;;;;;;;9.40;5.20;;;4.10;78.90;;;;;;5053320;28;20036;-69
2022/09/21 06:20:46;;;;;;;10.63;4.47;;;4.20;78.90;;;;;;5053449;28;20084;-69
2022/09/21 06:23:15;;;;;;;8.77;4.60;;;4.30;78.90;;;;;;5053057;28;20029;-69
2022/09/21 06:25:41;;;;;;;8.60;4.50;;;4.50;77.70;;;;;;5048505;28;20017;-69
2022/09/21 06:28:10;;;;;;;11.70;4.63;;;4.60;78.30;;;;;;5045948;28;20368;-69
2022/09/21 06:30:37;;;;;;;8.27;4.10;;;4.70;78.40;;;;;;5039723;28;20033;-69
2022/09/21 06:33:05;;;;;;;8.10;3.92;;;4.90;78.30;;;;;;5058886;28;20025;-69
2022/09/21 06:35:35;;;;;;;11.45;4.30;;;5.00;77.90;;;;;;5040248;28;20048;-69
2022/09/21 06:38:03;;;;;;;7.43;4.00;;;5.10;78.50;;;;;;5058506;28;20025;-69
2022/09/21 06:40:32;;;;;;;9.65;4.00;;;5.30;78.00;;;;;;5055807;28;20527;-71
2022/09/21 06:43:01;;;;;;;6.13;3.88;;;5.40;78.90;;;;;;5057865;28;20108;-70
2022/09/21 06:45:30;;;;;;;10.23;3.83;;;5.50;78.60;;;;;;5058643;28;20021;-70
2022/09/21 06:48:01;;;;;;;7.65;4.45;;;5.60;78.90;;;;;;5057806;28;20051;-70
2022/09/21 06:50:29;;;;;;;10.73;5.28;;;5.70;79.50;;;;;;5058529;28;20033;-70
2022/09/21 06:53:00;;;;;;;10.40;6.40;;;5.80;80.90;;;;;;5039997;28;20025;-70
2022/09/21 06:55:26;;;;;;;13.52;6.35;;;6.00;82.60;;;;;;5055760;28;20034;-69
2022/09/21 06:58:15;;;;;;;10.18;6.05;;;6.10;84.10;;;;;;5057444;28;20095;-70
2022/09/21 07:00:41;;;;;;;14.27;5.90;;;6.40;84.60;;;;;;5044234;28;20501;-68
2022/09/21 07:03:12;;;;;;;11.32;6.47;;;6.50;87.40;;;;;;5039647;28;20104;-68
2022/09/21 07:05:44;;;;;;;10.40;4.60;;;6.60;88.80;;;;;;5038458;28;20041;-68
2022/09/21 07:08:09;;;;;;;8.50;3.60;;;6.80;92.80;;;;;;5051957;28;20128;-68
2022/09/21 07:10:38;;;;;;;8.75;4.28;;;6.80;95.20;;;;;;5053001;28;20521;-68
2022/09/21 07:13:04;;;;;;;7.90;4.10;;;6.90;96.70;;;;;;5051767;28;20422;-68
2022/09/21 07:15:39;;;;;;;12.30;4.20;;;7.00;97.20;;;;;;5037769;28;20037;-68
2022/09/21 07:18:13;;;;;;;8.65;3.78;;;7.10;98.00;;;;;;5037977;28;20116;-68
2022/09/21 07:20:48;;;;;;;8.50;4.20;;;7.30;98.00;;;;;;5038120;28;20018;-68
2022/09/21 07:23:18;;;;;;;7.80;4.18;;;7.40;98.00;;;;;;5057839;28;20017;-68
2022/09/21 07:25:49;;;;;;;6.82;3.97;;;7.60;98.00;;;;;;5037327;28;20036;-68
2022/09/21 07:28:15;;;;;;;9.88;4.93;;;7.80;98.00;;;;;;5036974;28;20034;-68
2022/09/21 07:30:41;;;;;;;11.93;5.70;;;7.80;98.00;;;;;;5020343;28;20072;-69
2022/09/21 07:33:09;;;;;;;13.05;5.78;;;7.90;98.00;;;;;;5055812;28;20354;-68
2022/09/21 07:35:38;;;;;;;12.07;6.10;;;7.90;98.00;;;;;;5041866;28;20041;-69
2022/09/21 07:38:08;;;;;;;13.90;5.65;;;8.00;98.00;;;;;;5037785;28;20041;-69
2022/09/21 07:40:34;;;;;;;14.55;6.95;;;8.00;98.00;;;;;;5046620;28;20346;-68
2022/09/21 07:43:01;;;;;;;10.73;5.35;;;8.20;98.00;;;;;;5056182;28;20098;-69
2022/09/21 07:45:27;;;;;;;11.45;5.50;;;8.40;98.00;;;;;;5056769;28;20108;-68
2022/09/21 07:47:53;;;;;;;11.60;5.90;;;8.60;98.00;;;;;;5057578;28;20046;-68
2022/09/21 07:50:22;;;;;;;12.07;6.15;;;8.70;98.00;;;;;;5056068;28;20021;-68
2022/09/21 07:52:47;;;;;;;10.82;5.70;;;8.90;98.00;;;;;;5057471;28;20025;-68
2022/09/21 07:55:14;;;;;;;9.73;4.90;;;9.00;98.00;;;;;;5055120;28;20032;-69
2022/09/21 08:00:28;;;;;;;8.02;5.32;;;9.10;98.00;;;;;;5051851;28;20086;-69
2022/09/21 08:02:56;;;;;;;11.02;4.60;;;9.30;98.00;;;;;;5040843;28;20287;-68
2022/09/21 08:05:22;;;;;;;10.20;4.95;;;9.60;98.00;;;;;;5025157;28;20025;-68
2022/09/21 08:07:47;;;;;;;8.73;4.28;;;9.70;98.00;;;;;;5047320;28;20306;-68
2022/09/21 08:10:13;;;;;;;9.60;5.05;;;9.90;98.00;;;;;;5052120;28;20096;-69
2022/09/21 08:12:39;;;;;;;9.77;4.25;;;10.10;98.00;;;;;;5050266;28;20090;-69
2022/09/21 08:15:05;;;;;;;7.78;3.80;;;10.70;98.00;;;;;;5021028;28;20021;-69
2022/09/21 08:17:30;;;;;;;9.15;4.10;;;11.60;97.80;;;;;;5038028;28;20028;-69
2022/09/21 08:19:59;;;;;;;6.07;3.63;;;12.90;93.60;;;;;;5040323;28;20356;-68
2022/09/21 08:22:27;;;;;;;9.77;3.03;;;13.80;89.70;;;;;;5027690;28;20021;-69
2022/09/21 08:24:53;;;;;;;9.77;3.72;;;14.20;87.30;;;;;;5049285;28;20032;-68
2022/09/21 08:27:19;;;;;;;6.50;3.10;;;14.70;86.90;;;;;;5054220;28;20029;-68
2022/09/21 08:29:48;;;;;;;5.28;2.53;;;15.00;85.70;;;;;;5053102;28;20124;-68
2022/09/21 08:32:15;;;;;;;7.90;3.65;;;15.60;82.90;;;;;;5043421;28;20033;-68
2022/09/21 08:34:40;;;;;;;6.60;3.53;;;16.20;81.30;;;;;;5052045;28;20043;-68
2022/09/21 08:37:06;;;;;;;8.32;4.00;;;16.70;81.20;;;;;;5042057;28;20029;-68
2022/09/21 08:39:32;;;;;;;8.05;3.42;;;16.60;80.10;;;;;;5053626;28;20025;-68
2022/09/21 08:42:18;;;;;;;7.07;3.28;;;16.50;81.30;;;;;;5054938;28;20422;-68
2022/09/21 08:45:08;;;;;;;8.68;3.80;;;16.90;78.80;;;;;;5055821;28;20436;-68
2022/09/21 08:47:57;;;;;;;4.47;2.08;;;16.70;79.20;;;;;;5055841;28;20391;-69
2022/09/21 08:50:39;;;;;;;4.95;1.65;;;16.80;78.10;;;;;;5037342;28;20029;-68
2022/09/21 08:53:15;;;;;;;3.42;1.20;;;16.30;76.30;;;;;;5038551;28;20083;-68
2022/09/21 08:55:41;;;;;;;5.25;1.20;;;16.80;75.70;;;;;;5049495;28;20021;-69
2022/09/21 08:58:30;;;;;;;4.20;1.20;;;17.30;73.20;;;;;;5039385;28;20079;-68
2022/09/21 09:01:29;;;;;;;4.10;1.23;;;17.80;73.10;;;;;;5040913;28;20033;-68
2022/09/21 09:04:25;;;;;;;4.82;1.30;;;18.50;72.00;;;;;;5045822;28;20029;-68
2022/09/21 09:07:20;;;;;;;3.83;1.52;;;18.40;70.70;;;;;;5047970;28;20029;-68
2022/09/21 09:10:29;;;;;;;4.75;1.80;;;18.20;71.60;;;;;;5037265;28;20082;-69
2022/09/21 09:12:55;;;;;;;4.95;1.02;;;18.00;74.10;;;;;;5046131;28;20079;-68
2022/09/21 09:15:47;;;;;;;5.60;1.48;;;18.90;69.80;;;;;;5053275;28;20021;-68
2022/09/21 09:18:28;;;;;;;4.47;1.10;;;19.40;68.20;;;;;;5054449;28;20496;-69
2022/09/21 09:21:19;;;;;;;5.15;1.50;;;19.60;68.50;;;;;;5046050;28;20422;-68
2022/09/21 09:23:59;;;;;;;4.55;1.88;;;19.00;67.60;;;;;;5042618;28;20129;-68
2022/09/21 09:26:35;;;;;;;5.60;2.05;;;18.50;71.00;;;;;;5054146;28;20021;-68
2022/09/21 09:29:13;;;;;;;6.30;3.20;;;17.00;75.00;;;;;;5016967;28;20029;-67
2022/09/21 09:31:44;;;;;;;8.30;3.17;;;16.90;76.40;;;;;;5051426;28;20084;-67
2022/09/21 09:34:12;;;;;;;7.95;2.97;;;16.90;78.10;;;;;;5054944;28;20041;-67
2022/09/21 09:36:47;;;;;;;7.45;2.88;;;17.30;77.10;;;;;;5054368;28;20335;-68
2022/09/21 09:39:16;;;;;;;5.22;2.80;;;16.40;78.10;;;;;;5052940;28;20048;-69
2022/09/21 09:42:10;;;;;;;7.32;3.55;;;16.20;79.70;;;;;;5054832;28;20036;-68
2022/09/21 09:44:43;;;;;;;6.53;3.38;;;15.80;80.60;;;;;;5053542;28;20057;-68
2022/09/21 09:47:51;;;;;;;6.53;3.70;;;15.20;81.60;;;;;;5053101;28;20032;-68
2022/09/21 09:50:26;;;;;;;7.25;3.50;;;15.10;82.80;;;;;;5054882;28;20029;-69
2022/09/21 09:52:54;;;;;;;6.57;3.55;;;15.50;81.60;;;;;;5041648;28;20071;-69
2022/09/21 09:55:25;;;;;;;8.38;4.00;;;14.80;82.70;;;;;;5052427;28;20036;-69
2022/09/21 09:57:54;;;;;;;6.28;2.70;;;14.10;84.60;;;;;;5049494;28;20040;-68
2022/09/21 10:00:20;;;;;;;6.43;2.67;;;14.10;84.50;;;;;;5054571;28;20021;-69
2022/09/21 10:02:51;;;;;;;5.18;2.38;;;14.00;83.20;;;;;;5037244;28;20078;-68
2022/09/21 10:05:29;;;;;;;5.75;2.30;;;13.80;84.80;;;;;;5037776;28;20025;-68
2022/09/21 10:07:54;;;;;;;5.93;2.15;;;14.50;83.30;;;;;;5057454;28;20029;-69
2022/09/21 10:10:22;;;;;;;6.45;3.13;;;15.20;81.00;;;;;;5055940;28;20410;-68
2022/09/21 10:12:49;;;;;;;6.75;2.70;;;15.70;81.60;;;;;;5058618;28;20154;-69
2022/09/21 10:15:20;;;;;;;7.68;3.10;;;16.70;80.40;;;;;;5058508;28;20028;-69
2022/09/21 10:17:46;;;;;;;8.75;3.20;;;17.10;78.50;;;;;;5051608;28;20318;-68
2022/09/21 10:20:19;;;;;;;7.40;3.17;;;17.00;77.30;;;;;;5054864;28;20025;-68
2022/09/21 10:22:53;;;;;;;6.43;2.58;;;17.60;77.00;;;;;;5030035;28;20354;-68
2022/09/21 10:25:20;;;;;;;5.22;2.00;;;17.70;74.60;;;;;;5055196;28;20406;-69
2022/09/21 10:27:50;;;;;;;23.42;2.72;;;18.10;72.80;;;;;;5058290;28;20033;-68
2022/09/21 10:30:37;;;;;;;6.35;2.17;;;17.40;76.20;;;;;;5058954;28;20040;-68
2022/09/21 10:33:17;;;;;;;3.97;1.70;;;16.70;76.30;;;;;;5045684;28;20030;-69
2022/09/21 10:35:53;;;;;;;5.15;2.10;;;16.60;76.80;;;;;;5045980;28;20041;-68
2022/09/21 10:38:26;;;;;;;5.20;2.30;;;16.80;76.30;;;;;;5044632;28;20033;-68
2022/09/21 10:40:53;;;;;;;5.47;2.13;;;16.90;77.20;;;;;;5049228;28;20036;-69
2022/09/21 10:43:40;;;;;;;7.82;2.60;;;16.90;78.10;;;;;;5058216;28;20118;-69
2022/09/21 10:46:06;;;;;;;5.05;2.22;;;17.50;77.40;;;;;;5058012;28;20025;-69
2022/09/21 10:48:35;;;;;;;4.53;1.63;;;18.60;74.70;;;;;;5053849;28;20486;-69
2022/09/21 10:51:03;;;;;;;4.38;1.50;;;18.60;72.00;;;;;;5058139;28;20047;-68
2022/09/21 10:53:35;;;;;;;3.60;1.48;;;17.70;73.30;;;;;;5052713;28;20033;-68
2022/09/21 10:56:14;;;;;;;4.22;1.48;;;17.20;73.90;;;;;;5044250;28;20025;-68
2022/09/21 10:59:08;;;;;;;4.75;1.45;;;16.70;74.60;;;;;;5043589;28;20028;-69
2022/09/21 11:01:34;;;;;;;2.25;1.00;;;16.20;77.10;;;;;;5052849;28;20104;-72
2022/09/21 11:04:05;;;;;;;2.53;1.00;;;16.30;76.30;;;;;;5047619;28;20112;-69
2022/09/21 11:06:41;;;;;;;3.03;1.00;;;16.80;74.40;;;;;;5046890;28;20017;-69
2022/09/21 11:09:31;;;;;;;3.70;1.08;;;17.30;71.30;;;;;;5056275;28;20029;-68
2022/09/21 11:12:34;;;;;;;2.45;0.98;;;16.80;72.20;;;;;;5044577;28;20334;-68
2022/09/21 11:15:44;;;;;;;3.58;1.13;;;16.00;75.50;;;;;;5038955;28;20047;-68
2022/09/21 11:18:23;;;;;;;4.78;0.90;;;15.60;76.30;;;;;;5026260;28;20043;-68
2022/09/21 11:21:01;;;;;;;2.58;0.90;;;15.60;75.50;;;;;;5056469;28;20371;-68
2022/09/21 11:23:44;;;;;;;2.83;0.88;;;16.10;73.90;;;;;;5047607;28;20026;-69
2022/09/21 11:26:28;;;;;;;6.82;1.02;;;17.40;70.60;;;;;;5056169;28;20029;-69
2022/09/21 11:28:59;;;;;;;2.00;0.80;;;18.40;68.00;;;;;;5055956;28;20325;-68
2022/09/21 11:31:43;;;;;;;3.75;0.90;;;18.30;67.20;;;;;;5051183;28;20021;-69
2022/09/21 11:34:32;;;;;;;2.40;0.98;;;17.30;67.50;;;;;;5030238;28;20038;-69
2022/09/21 11:37:24;;;;;;;4.57;1.15;;;16.30;72.30;;;;;;5019534;28;20079;-68
2022/09/21 11:40:25;;;;;;;4.25;1.15;;;15.70;74.40;;;;;;5033618;28;20042;-69
2022/09/21 11:43:33;;;;;;;2.58;0.80;;;15.50;73.90;;;;;;5030849;28;20026;-68
2022/09/21 11:46:24;;;;;;;2.70;0.80;;;16.30;76.10;;;;;;5035003;28;20032;-69
2022/09/21 11:49:18;;;;;;;2.90;0.90;;;18.30;70.80;;;;;;5031151;28;20114;-69
2022/09/21 11:52:14;;;;;;;5.50;1.55;;;19.70;67.60;;;;;;5035528;28;20056;-69
2022/09/21 11:55:11;;;;;;;2.97;0.80;;;20.00;66.20;;;;;;5035571;28;20033;-69
2022/09/21 11:57:49;;;;;;;3.60;1.00;;;20.20;65.50;;;;;;5024246;28;20021;-69
2022/09/21 12:00:20;;;;;;;1.95;0.75;;;21.20;64.10;;;;;;5035278;28;20063;-69
2022/09/21 12:03:15;;;;;;;3.55;1.08;;;21.60;63.20;;;;;;5034183;28;20024;-69
2022/09/21 12:06:19;;;;;;;2.88;0.73;;;21.50;62.60;;;;;;5034430;28;20021;-69
2022/09/21 12:09:09;;;;;;;2.33;0.73;;;21.60;62.10;;;;;;5034772;28;20055;-69
2022/09/21 12:11:46;;;;;;;3.08;0.75;;;21.50;62.00;;;;;;5036093;28;20065;-69
2022/09/21 12:14:11;;;;;;;3.08;0.90;;;21.30;61.80;;;;;;5034131;28;20422;-69
2022/09/21 12:17:08;;;;;;;4.13;1.00;;;20.90;61.70;;;;;;5033791;28;20029;-69
2022/09/21 12:19:43;;;;;;;1.88;0.70;;;20.90;63.70;;;;;;5032928;28;20422;-68
2022/09/21 12:22:16;;;;;;;1.92;0.70;;;21.00;61.00;;;;;;5019614;28;20037;-68
2022/09/21 12:24:49;;;;;;;3.03;0.98;;;20.80;61.60;;;;;;5033547;28;20295;-68
2022/09/21 12:27:42;;;;;;;1.60;0.73;;;20.70;64.10;;;;;;5024951;28;20089;-68
2022/09/21 12:30:16;;;;;;;3.05;0.93;;;20.70;62.70;;;;;;5025967;28;20026;-69
2022/09/21 12:32:50;;;;;;;2.30;0.95;;;21.10;63.10;;;;;;5026024;28;20488;-69
2022/09/21 12:35:40;;;;;;;2.22;0.80;;;21.00;64.20;;;;;;5048498;28;20048;-69
2022/09/21 12:38:27;;;;;;;2.50;0.70;;;20.70;63.40;;;;;;5052849;28;20036;-69
2022/09/21 12:41:04;;;;;;;3.78;1.00;;;20.50;63.90;;;;;;5055287;28;20079;-69
2022/09/21 12:43:32;;;;;;;2.35;0.68;;;20.50;64.60;;;;;;5054423;28;20031;-69
2022/09/21 12:46:16;;;;;;;2.35;1.10;;;20.50;57.70;;;;;;5056382;28;20426;-69
2022/09/21 12:48:42;;;;;;;2.83;0.87;;;19.60;61.40;;;;;;5055281;28;20330;-69
2022/09/21 12:51:23;;;;;;;2.22;0.70;;;19.10;63.50;;;;;;5056444;28;20728;-69
2022/09/21 12:53:56;;;;;;;2.13;0.70;;;19.00;66.80;;;;;;5052923;28;20035;-69
2022/09/21 12:56:51;;;;;;;2.63;0.70;;;19.20;66.30;;;;;;5055400;28;20386;-69
2022/09/21 12:59:35;;;;;;;;;;;19.30;63.30;;;;;;5056555;28;20182;-69
2022/09/21 13:02:23;;;;;;;2.20;0.70;;;19.60;63.40;;;;;;5054096;28;19912;-69
2022/09/21 13:04:48;;;;;;;2.00;0.80;;;19.90;62.60;;;;;;5036366;28;20026;-69
2022/09/21 13:07:34;;;;;;;2.25;0.70;;;20.00;61.20;;;;;;5036129;28;21084;-69
2022/09/21 13:10:27;;;;;;;1.85;0.75;;;20.30;61.70;;;;;;5034926;28;20026;-69
2022/09/21 13:12:58;;;;;;;1.48;0.65;;;20.50;57.80;;;;;;5023375;28;20041;-69
2022/09/21 13:15:38;;;;;;;1.35;0.57;;;20.20;60.60;;;;;;5056114;28;20025;-69
2022/09/21 13:18:15;;;;;;;2.45;0.77;;;19.90;60.60;;;;;;5054709;28;20020;-69
2022/09/21 13:20:41;;;;;;;1.20;0.52;;;20.00;61.80;;;;;;5055842;28;20021;-69
2022/09/21 13:23:40;;;;;;;3.00;0.70;;;20.20;61.20;;;;;;5050732;28;20021;-69
2022/09/21 13:26:09;;;;;;;1.40;0.60;;;20.40;61.90;;;;;;5043114;28;20056;-69
2022/09/21 13:29:04;;;;;;;3.03;0.80;;;20.50;62.60;;;;;;5054669;28;20033;-69
2022/09/21 13:31:56;;;;;;;2.35;0.60;;;20.50;60.40;;;;;;5034578;28;20033;-69